Observations for WASHINGTON NATIONAL, VA (DCA)

KDCA 220952Z 19005KT 10SM FEW120 FEW150 BKN250 09/03 A3039 RMK AO2 SLP291 T00940033 
KDCA 220852Z 19005KT 10SM FEW110 SCT150 BKN250 09/03 A3039 RMK AO2 SLP290 T00940033 55001   
KDCA 220752Z 19006KT 10SM BKN130 OVC250 10/04 A3038 RMK AO2 SLP288 T01000044
KDCA 220652Z 18006KT 10SM BKN130 OVC250 11/04 A3038 RMK AO2 SLP288 T01060039
KDCA 220552Z 18005KT 10SM BKN130 OVC250 11/04 A3039 RMK AO2 SLP291 T01060044 10150 20106 50001  
KDCA 220452Z 17004KT 10SM BKN150 BKN250 11/04 A3039 RMK AO2 SLP292 T01110044 401720056  
KDCA 220352Z 17003KT 10SM BKN150 BKN250 12/02 A3039 RMK AO2 SLP290 T01170022
KDCA 220252Z 18005KT 10SM OVC150 12/02 A3039 RMK AO2 SLP290 T01220017 51012 
KDCA 220152Z 20003KT 10SM OVC150 12/02 A3038 RMK AO2 SLP287 T01220017   
KDCA 220052Z 21003KT 10SM SCT160 BKN250 14/M03 A3037 RMK AO2 SLP283 T01441033   
KDCA 212352Z 17004KT 10SM BKN160 OVC250 14/00 A3035 RMK AO2 SLP279 T01440000 10172 20139 53003  
KDCA 212252Z 18007KT 10SM FEW100 BKN170 BKN250 15/M01 A3035 RMK AO2 SLP276 T01501006
KDCA 212152Z 17006KT 10SM FEW120 BKN250 16/00 A3035 RMK AO2 SLP276 T01560000
KDCA 212052Z 14004KT 10SM FEW120 BKN250 16/M01 A3035 RMK AO2 SLP276 T01561006 56020 
KDCA 211952Z 08005KT 10SM BKN250 16/M01 A3036 RMK AO2 SLP280 T01611011  
KDCA 211852Z 13005KT 10SM BKN250 15/M02 A3038 RMK AO2 SLP289 T01501017  
KDCA 211752Z 04006KT 10SM BKN250 15/M02 A3040 RMK AO2 SLP296 T01501022 10150 20072 58030
KDCA 211652Z 02008KT 10SM BKN250 14/M02 A3044 RMK AO2 SLP307 T01441017  
KDCA 211552Z 03005KT 10SM BKN250 13/M02 A3047 RMK AO2 SLP317 T01281022  
KDCA 211452Z 09005KT 10SM BKN250 11/M02 A3049 RMK AO2 SLP326 T01111022 50000
KDCA 211352Z 00000KT 10SM BKN250 09/M04 A3051 RMK AO2 SLP332 T00941044  
KDCA 211252Z 00000KT 10SM BKN250 09/M04 A3050 RMK AO2 SLP329 T00891039  
KDCA 211152Z 00000KT 10SM BKN250 07/M02 A3050 RMK AO2 SLP326 T00721022 10083 20056 53014
KDCA 211052Z 11003KT 10SM BKN250 06/M03 A3048 RMK AO2 SLP320 T00561028  
KDCA 210952Z 06004KT 10SM FEW250 06/M02 A3047 RMK AO2 SLP317 T00561022